Aérodrome :
LOGIN :

S'inscrire | Disclaimer

   EN    FR    IT 

 










Légende :    VFR   VFR Marginal   IFR   IFR Intensif   IFR Très Intensif
Visi : 
Plafond : 
>= 8 km
>= 3000ft
5 à 8 km
1000 à 3000 ft
1500m à 5 km
500 à 1000 ft
800 à 1500m
200 à 500 ft
< 800m
< 200 ft
Symboles :   Orages  Brouillard  Fortes neiges  Fortes précipitations  Vent > 20 kt
SIGMETs :   Divers  Orages  Givrage  Turbulence  Onde Orograph.  Cendres Volcan.







- Altitude de l'aérodrome : -15 ft
- Code IATA : RTM


EHRD - Rotterdam Zestienhoven

DERNIER METAR :
  • 261725Z AUTO 35009KT 310V040 9999 FEW029 08/02 Q1014 NOSIG

METARs EXPIRÉS :
  • 261655Z AUTO 35014KT 300V030 9999 FEW033 08/02 Q1014 NOSIG
  • 261625Z AUTO 35012KT 290V030 9999 FEW029 08/02 Q1014 NOSIG
  • 261555Z AUTO 35011KT 300V040 9999 SCT034 SCT039 09/02 Q1014 NOSIG
  • 261525Z AUTO 34010KT 280V030 9999 FEW032 SCT043 10/02 Q1014 NOSIG
  • 261455Z AUTO 34009KT 280V020 9999 FEW036 10/02 Q1014 NOSIG

TAF COR TAF EHRD
Valide du 26 à 18h jusqu'au 28 à 00h UTC


261706Z 2618/2724 35012KT 9999 SCT030
BECMG 2618/2621 34005KT
PROB30
TEMPO 2618/2713 7000 -SHRA FEW020CB
BECMG 2709/2712 28010KT
BECMG 2718/2721 23006KT
PROB40
TEMPO 2719/2724 7000 -RA
Pas de NOTAMs connus pour ce terrain.



MET'MAP, la Météo Aéronautique d'un coup d'oeil ! - Copyright ORBIFLY Décembre 2007 - Disclaimer

ORBIFLY MET'MAP TEAM :

Programmation & Développement : Alexandra Zaïnal
Conception & Développement : Baudouin d'Aumeries
Co-Programmation & Développement : Marc-Olivier Méhu
Soutien technique & logistique : Manuel Goepfert

Contact : metmap@orbifly.com




SOURCES & CREDITS :

   NOAA